Time;durP1;ratioP1;P1;durP2;ratioP2;P2;SDS_P1;SDS_P2;PMS_P1;PMS_P2;Temp;Humidity;BMP_temperature;BMP_pressure;BME280_temperature;BME280_humidity;BME280_pressure;Samples;Min_cycle;Max_cycle;Signal;HPM_P1;HPM_P2
2022/05/10 00:01:39;;;;;;;10.98;6.07;;;;;;;17.11;68.06;101084.25;5368459;32;33851;-93
2022/05/10 00:04:43;;;;;;;;;;;;;;;17.30;66.92;101100.88;5375935;32;44692;-92
2022/05/10 00:07:45;;;;;;;14.77;7.35;;;;;;;16.86;68.97;101091.81;5365345;32;33707;-91
2022/05/10 00:10:48;;;;;;;11.55;6.62;;;;;;;16.74;69.41;101080.06;5379504;32;34979;-94
2022/05/10 00:13:50;;;;;;;11.15;6.37;;;;;;;17.49;66.49;101091.88;5361217;32;34219;-92
2022/05/10 00:16:54;;;;;;;10.82;6.30;;;;;;;16.94;69.31;101090.50;5353455;32;34141;-94
2022/05/10 00:19:57;;;;;;;10.53;6.30;;;;;;;17.33;66.67;101071.50;5365876;32;34915;-92
2022/05/10 00:23:00;;;;;;;10.15;6.10;;;;;;;17.48;66.72;101077.72;5370577;32;34654;-93
2022/05/10 00:26:02;;;;;;;11.23;6.05;;;;;;;17.46;65.41;101084.94;5395664;32;33219;-92
2022/05/10 00:29:05;;;;;;;11.77;5.57;;;;;;;17.46;65.34;101076.97;5356274;32;35274;-93
2022/05/10 00:32:09;;;;;;;10.00;5.93;;;;;;;16.79;68.07;101078.03;5374517;32;35684;-93
2022/05/10 00:35:24;;;;;;;8.90;5.80;;;;;;;17.39;66.43;101077.37;5366537;32;43114;-93
2022/05/10 00:38:38;;;;;;;14.03;5.87;;;;;;;17.49;65.55;101063.50;5349122;32;35312;-89
2022/05/10 00:41:41;;;;;;;11.10;5.90;;;;;;;17.30;66.53;101066.34;5364519;32;44962;-91
2022/05/10 00:44:52;;;;;;;11.18;5.85;;;;;;;16.76;68.68;101063.13;5376571;32;35593;-93
2022/05/10 00:48:09;;;;;;;11.43;6.27;;;;;;;17.29;65.86;101056.66;5378318;32;34324;-91
2022/05/10 00:51:27;;;;;;;12.77;6.30;;;;;;;17.46;64.93;101049.53;5367486;32;44502;-93
2022/05/10 00:54:46;;;;;;;9.37;5.90;;;;;;;16.75;68.48;101056.12;5366163;32;37001;-93
2022/05/10 00:57:50;;;;;;;10.90;5.60;;;;;;;17.12;67.74;101047.91;5376916;32;43042;-91
2022/05/10 01:00:54;;;;;;;9.43;6.20;;;;;;;17.22;67.15;101049.12;5377942;32;34028;-91
2022/05/10 01:04:14;;;;;;;9.87;6.10;;;;;;;16.65;69.60;101038.94;5361590;32;33014;-93
2022/05/10 01:07:23;;;;;;;10.03;6.20;;;;;;;17.06;68.08;101049.09;5376184;32;44069;-92
2022/05/10 01:10:43;;;;;;;10.10;6.27;;;;;;;17.14;67.91;101046.03;5355182;32;34250;-94
2022/05/10 01:13:47;;;;;;;10.73;6.13;;;;;;;17.71;65.15;101038.31;5360717;32;45251;-92
2022/05/10 01:16:50;;;;;;;9.90;5.60;;;;;;;17.68;65.21;101039.38;5350717;32;36109;-94
2022/05/10 01:19:53;;;;;;;9.70;6.10;;;;;;;16.29;71.38;101041.72;5375240;32;33667;-92
2022/05/10 01:23:02;;;;;;;9.55;5.93;;;;;;;16.40;70.69;101036.72;5349652;32;35821;-94
2022/05/10 01:26:12;;;;;;;9.67;6.37;;;;;;;16.76;69.01;101038.41;5367692;32;35583;-92
2022/05/10 01:29:38;;;;;;;9.10;5.63;;;;;;;16.67;69.27;101037.03;5376821;32;43004;-93
2022/05/10 01:36:19;;;;;;;9.53;5.83;;;;;;;16.96;65.87;101037.28;5370598;32;44179;-90
2022/05/10 01:39:27;;;;;;;10.40;5.43;;;;;;;17.21;65.92;101032.34;5380527;32;34147;-92
2022/05/10 01:42:29;;;;;;;9.60;6.13;;;;;;;16.89;68.17;101030.63;5364768;32;34650;-91
2022/05/10 01:45:40;;;;;;;11.20;5.87;;;;;;;17.18;66.05;101032.47;5380883;32;33051;-91
2022/05/10 01:48:46;;;;;;;8.90;5.67;;;;;;;16.74;67.89;101037.59;5378991;32;42290;-89
2022/05/10 01:52:19;;;;;;;9.60;5.87;;;;;;;16.82;67.51;101031.91;5378389;32;32913;-94
2022/05/10 01:55:29;;;;;;;11.25;5.80;;;;;;;16.88;66.28;101016.50;5363736;32;34740;-93
2022/05/10 01:58:34;;;;;;;11.87;6.03;;;;;;;16.85;67.09;101026.41;5356250;32;35060;-92
2022/05/10 02:01:39;;;;;;;8.77;5.50;;;;;;;16.53;68.84;101018.34;5361660;32;36488;-91
2022/05/10 02:04:45;;;;;;;10.63;6.10;;;;;;;16.56;69.11;101020.88;5364166;32;43477;-92
2022/05/10 02:07:49;;;;;;;9.13;5.67;;;;;;;16.40;70.33;101018.16;5384789;32;36017;-93
2022/05/10 02:10:54;;;;;;;11.73;5.73;;;;;;;16.40;69.72;101018.16;5364219;32;35983;-92
2022/05/10 02:14:14;;;;;;;11.17;5.63;;;;;;;16.92;67.85;101019.81;5358226;32;34149;-92
2022/05/10 02:17:25;;;;;;;9.90;5.37;;;;;;;16.53;68.35;101018.34;5376069;32;44491;-94
2022/05/10 02:20:55;;;;;;;9.87;5.50;;;;;;;16.61;68.05;101028.56;5353599;32;34593;-92
2022/05/10 02:24:07;;;;;;;10.13;5.40;;;;;;;16.69;67.85;101019.25;5359234;32;34188;-92
2022/05/10 02:27:14;;;;;;;9.93;5.60;;;;;;;16.22;69.33;101017.31;5366382;32;46381;-92
2022/05/10 02:30:22;;;;;;;12.00;5.40;;;;;;;16.07;69.50;101010.19;5367092;32;35619;-92
2022/05/10 02:33:25;;;;;;;10.90;5.70;;;;;;;17.02;66.21;101013.06;5382955;32;36862;-94
2022/05/10 02:36:28;;;;;;;8.33;4.83;;;;;;;16.74;67.28;101013.72;5363751;32;34603;-94
2022/05/10 02:39:31;;;;;;;8.32;4.95;;;;;;;17.10;64.96;101008.16;5365937;32;33680;-94
2022/05/10 02:42:34;;;;;;;10.15;5.07;;;;;;;16.78;66.93;101008.16;5362548;32;35375;-91
2022/05/10 02:45:37;;;;;;;8.95;4.80;;;;;;;16.93;64.86;101017.06;5343712;32;34701;-94
2022/05/10 02:48:40;;;;;;;8.68;5.43;;;;;;;17.07;65.07;101005.69;5373557;32;35694;-91
2022/05/10 02:51:42;;;;;;;;;;;;;;;16.71;66.26;101006.78;5348798;32;35245;-92
2022/05/10 02:54:45;;;;;;;9.07;5.10;;;;;;;17.15;64.04;101005.25;5372567;32;34641;-94
2022/05/10 02:57:48;;;;;;;8.27;4.70;;;;;;;17.06;64.16;101006.63;5370380;32;35245;-93
2022/05/10 03:00:54;;;;;;;9.97;6.40;;;;;;;17.17;63.63;101009.53;5358965;32;35436;-94
2022/05/10 03:03:58;;;;;;;8.67;5.00;;;;;;;16.88;65.24;101010.31;5368026;32;32498;-91
2022/05/10 03:07:02;;;;;;;10.43;5.13;;;;;;;16.77;65.82;101006.44;5365485;32;34762;-93
2022/05/10 03:10:06;;;;;;;8.33;4.93;;;;;;;17.38;63.28;101009.25;5368860;32;34118;-94
2022/05/10 03:13:09;;;;;;;10.30;5.00;;;;;;;17.55;62.28;101011.78;5367232;32;34074;-91
2022/05/10 03:16:12;;;;;;;9.65;5.45;;;;;;;17.32;63.20;101005.12;5353637;32;37007;-91
2022/05/10 03:19:16;;;;;;;11.43;5.28;;;;;;;17.18;64.43;101010.37;5353651;32;33112;-91
2022/05/10 03:22:19;;;;;;;11.83;5.10;;;;;;;16.26;67.41;100999.47;5365744;32;36848;-93
2022/05/10 03:25:21;;;;;;;8.63;5.40;;;;;;;17.07;63.74;100997.72;5359757;32;35524;-92
2022/05/10 03:28:24;;;;;;;11.27;5.32;;;;;;;16.44;66.98;101002.94;5349292;32;35389;-93
2022/05/10 03:31:28;;;;;;;;;;;;;;;16.39;67.07;101011.16;5364062;32;33651;-92
2022/05/10 03:37:51;;;;;;;10.73;5.30;;;;;;;17.55;62.20;101001.16;5377070;32;33482;-94
2022/05/10 03:40:55;;;;;;;9.82;5.22;;;;;;;17.45;62.66;101002.63;5363039;32;35510;-93
2022/05/10 03:43:58;;;;;;;;;;;;;;;17.30;62.85;101005.22;5371392;32;36144;-94
2022/05/10 03:47:00;;;;;;;8.77;5.13;;;;;;;17.57;62.74;101017.88;5371460;32;34553;-93
2022/05/10 03:50:05;;;;;;;13.50;5.80;;;;;;;17.19;63.99;101014.75;5357621;32;34213;-91
2022/05/10 03:53:07;;;;;;;13.27;6.37;;;;;;;17.29;63.77;101008.84;5361371;32;35407;-93
2022/05/10 03:56:11;;;;;;;15.00;9.77;;;;;;;17.37;62.72;101007.53;5349854;32;46339;-93
2022/05/10 03:59:13;;;;;;;13.88;6.60;;;;;;;17.37;63.23;100994.25;5361357;32;35844;-93
2022/05/10 04:02:18;;;;;;;18.40;5.90;;;;;;;16.63;66.65;100986.88;5356030;32;33930;-93
2022/05/10 04:05:22;;;;;;;13.50;6.40;;;;;;;16.82;66.31;101006.22;5367628;32;37704;-95
2022/05/10 04:08:27;;;;;;;12.43;6.07;;;;;;;17.65;63.01;101005.00;5378438;32;36457;-91
2022/05/10 04:11:30;;;;;;;13.90;6.80;;;;;;;16.88;65.58;101000.56;5357791;32;34228;-94
2022/05/10 04:14:32;;;;;;;10.35;6.32;;;;;;;17.28;64.97;101012.44;5363656;32;36053;-93
2022/05/10 04:17:35;;;;;;;;;;;;;;;17.79;62.51;101005.06;5348167;32;35046;-94
2022/05/10 04:20:38;;;;;;;10.65;6.15;;;;;;;17.52;63.30;101014.62;5355311;32;35203;-91
2022/05/10 04:23:42;;;;;;;12.50;6.18;;;;;;;17.83;61.47;101011.03;5362858;32;44478;-92
2022/05/10 04:26:45;;;;;;;9.93;5.73;;;;;;;17.36;62.87;101019.13;5358914;32;35157;-94
2022/05/10 04:29:48;;;;;;;11.23;6.60;;;;;;;18.27;59.72;101012.84;5384582;32;34732;-94
2022/05/10 04:32:51;;;;;;;10.70;5.30;;;;;;;18.37;59.95;101016.66;5375196;32;35481;-94
2022/05/10 04:35:54;;;;;;;12.73;6.30;;;;;;;18.55;58.79;101014.66;5375119;32;34183;-93
2022/05/10 04:38:58;;;;;;;9.83;5.20;;;;;;;18.05;60.13;101022.12;5356323;32;34324;-94
2022/05/10 04:42:01;;;;;;;10.35;5.57;;;;;;;18.52;58.42;101010.37;5368030;32;38346;-94
2022/05/10 04:45:05;;;;;;;15.10;6.47;;;;;;;18.29;58.96;101016.25;5362609;32;35032;-94
2022/05/10 04:48:09;;;;;;;15.05;4.97;;;;;;;18.83;57.08;101027.13;5372338;32;35327;-91
2022/05/10 04:51:12;;;;;;;16.93;5.33;;;;;;;18.84;56.13;101029.69;5375858;32;43179;-92
2022/05/10 04:54:14;;;;;;;10.00;4.60;;;;;;;19.35;54.13;101029.09;5371989;32;33838;-93
2022/05/10 04:57:17;;;;;;;9.63;4.45;;;;;;;19.49;53.29;101029.87;5392569;32;35056;-94
2022/05/10 05:00:21;;;;;;;14.10;4.78;;;;;;;18.84;54.11;101028.81;5360160;32;34454;-92
2022/05/10 05:03:24;;;;;;;10.52;4.40;;;;;;;19.12;52.91;101030.56;5362509;32;36959;-94
2022/05/10 05:06:28;;;;;;;9.73;5.72;;;;;;;19.07;53.69;101038.88;5375628;32;34277;-94
2022/05/10 05:09:32;;;;;;;11.90;4.82;;;;;;;19.07;53.94;101027.37;5353145;32;35049;-92
2022/05/10 05:12:34;;;;;;;7.93;4.45;;;;;;;19.31;52.72;101033.75;5359887;32;34145;-93
2022/05/10 05:15:37;;;;;;;8.02;4.93;;;;;;;19.52;52.47;101042.16;5339882;32;36559;-93
2022/05/10 05:18:40;;;;;;;21.33;9.48;;;;;;;19.66;51.96;101043.94;5376321;32;42929;-91
2022/05/10 05:21:44;;;;;;;21.03;6.47;;;;;;;20.13;50.64;101048.72;5355107;32;33877;-92
2022/05/10 05:24:46;;;;;;;10.38;4.85;;;;;;;20.02;50.89;101048.59;5377065;32;33998;-93
2022/05/10 05:27:49;;;;;;;11.85;5.45;;;;;;;20.17;50.45;101041.38;5390493;32;34277;-90
2022/05/10 05:30:52;;;;;;;11.07;4.50;;;;;;;20.65;48.25;101050.47;5367659;32;33151;-92
2022/05/10 05:33:56;;;;;;;15.15;5.07;;;;;;;19.58;50.57;101054.25;5379427;32;36468;-92
2022/05/10 05:40:22;;;;;;;13.68;4.82;;;;;;;20.16;48.56;101063.69;5359416;32;32856;-92
2022/05/10 05:43:25;;;;;;;12.70;5.15;;;;;;;20.65;47.09;101050.47;5379288;32;36335;-96
2022/05/10 05:49:39;;;;;;;21.48;5.32;;;;;;;20.75;47.19;101046.19;5351609;32;35103;-67
2022/05/10 05:52:41;;;;;;;10.57;4.32;;;;;;;22.54;43.07;101042.62;5340662;32;34166;-66
2022/05/10 05:55:43;;;;;;;11.82;4.28;;;;;;;22.41;42.17;101040.94;5335343;32;35209;-69
2022/05/10 05:58:49;;;;;;;10.65;3.95;;;;;;;22.45;41.91;101044.22;5330835;32;34214;-71
2022/05/10 06:01:51;;;;;;;9.15;4.30;;;;;;;23.47;39.09;101040.47;5344837;32;45046;-68
2022/05/10 06:04:54;;;;;;;14.75;4.62;;;;;;;23.43;38.44;101042.53;5339524;32;34124;-69
2022/05/10 06:07:57;;;;;;;8.07;4.30;;;;;;;23.21;39.40;101046.16;5343573;32;34176;-68
2022/05/10 06:10:59;;;;;;;9.25;4.60;;;;;;;24.17;37.70;101055.19;5356526;32;35300;-63
2022/05/10 06:14:01;;;;;;;11.15;5.07;;;;;;;24.34;37.01;101059.12;5337123;32;34995;-64
2022/05/10 06:17:04;;;;;;;10.38;4.75;;;;;;;23.55;38.90;101051.41;5359042;32;34183;-78
2022/05/10 06:20:09;;;;;;;8.68;4.22;;;;;;;23.64;38.14;101045.31;5354980;32;35035;-68
2022/05/10 06:23:11;;;;;;;10.18;5.43;;;;;;;24.43;36.53;101048.44;5362738;32;34436;-67
2022/05/10 06:26:13;;;;;;;11.68;4.82;;;;;;;23.81;38.30;101054.63;5366925;32;35554;-63
2022/05/10 06:29:15;;;;;;;9.52;4.50;;;;;;;23.26;39.17;101056.50;5359729;32;33898;-69
2022/05/10 06:32:23;;;;;;;8.00;4.57;;;;;;;22.87;38.53;101050.72;5353955;32;34098;-64
2022/05/10 06:35:27;;;;;;;7.22;4.32;;;;;;;22.61;39.88;101058.13;5348053;32;44396;-64
2022/05/10 06:38:31;;;;;;;11.90;4.97;;;;;;;23.06;39.17;101050.09;5366016;32;34329;-73
2022/05/10 06:41:34;;;;;;;11.18;3.92;;;;;;;22.60;40.08;101048.34;5335980;32;34417;-75
2022/05/10 06:44:36;;;;;;;13.32;5.07;;;;;;;23.67;37.55;101046.87;5340918;32;34237;-64
2022/05/10 06:47:40;;;;;;;12.35;5.03;;;;;;;25.32;34.17;101041.41;5363548;32;35580;-74
2022/05/10 06:50:43;;;;;;;11.00;3.90;;;;;;;24.71;35.98;101044.16;5366308;32;34072;-70
2022/05/10 06:53:45;;;;;;;9.43;4.00;;;;;;;26.97;30.88;101031.19;5364157;32;34168;-72
2022/05/10 06:56:47;;;;;;;8.50;3.78;;;;;;;26.54;31.61;101033.69;5362923;32;34256;-70
2022/05/10 06:59:49;;;;;;;;;;;;;;;25.21;33.91;101044.22;5356945;32;46823;-66
2022/05/10 07:02:51;;;;;;;7.78;3.47;;;;;;;25.37;33.43;101040.97;5357326;32;34515;-71
2022/05/10 07:05:55;;;;;;;6.43;3.78;;;;;;;26.22;31.89;101034.03;5352461;32;35161;-66
2022/05/10 07:08:57;;;;;;;11.32;3.78;;;;;;;25.53;32.98;101035.06;5359640;32;34126;-71
2022/05/10 07:11:59;;;;;;;10.88;3.83;;;;;;;26.68;31.29;101028.66;5326677;32;34276;-72
2022/05/10 07:15:02;;;;;;;10.43;4.20;;;;;;;27.28;29.10;101020.09;5353518;32;35356;-73
2022/05/10 07:18:08;;;;;;;6.50;3.78;;;;;;;28.10;27.84;101027.09;5351687;32;35481;-74
2022/05/10 07:21:11;;;;;;;8.13;3.40;;;;;;;28.07;28.08;101025.53;5363718;32;35779;-72
2022/05/10 07:24:16;;;;;;;8.27;3.70;;;;;;;29.89;24.73;101018.81;5359005;32;34494;-78
2022/05/10 07:27:18;;;;;;;11.63;4.32;;;;;;;27.26;28.66;101022.97;5354049;32;35153;-68
2022/05/10 07:30:21;;;;;;;11.43;4.10;;;;;;;29.00;26.01;101014.09;5364982;32;45196;-65
2022/05/10 07:33:25;;;;;;;7.97;3.40;;;;;;;26.66;27.79;101030.66;5347880;32;35667;-67
2022/05/10 07:36:33;;;;;;;5.68;3.00;;;;;;;26.72;28.44;101032.75;5367073;32;34284;-63
2022/05/10 07:39:38;;;;;;;5.20;2.70;;;;;;;29.41;23.83;101029.41;5351530;32;35057;-75
2022/05/10 07:42:41;;;;;;;7.90;3.17;;;;;;;30.34;21.58;101028.28;5356973;32;35721;-77
2022/05/10 07:45:45;;;;;;;6.53;2.90;;;;;;;30.55;21.45;101030.41;5355059;32;34039;-77
2022/05/10 07:48:48;;;;;;;9.90;3.20;;;;;;;29.51;23.03;101032.00;5354683;32;33898;-86
2022/05/10 07:51:51;;;;;;;9.05;3.72;;;;;;;30.27;22.66;101021.81;5362859;32;44615;-65
2022/05/10 07:54:53;;;;;;;8.52;3.20;;;;;;;28.88;23.97;101016.22;5361715;32;34215;-68
2022/05/10 07:57:55;;;;;;;5.32;3.45;;;;;;;28.90;24.12;101019.59;5362161;32;34525;-74
2022/05/10 08:00:59;;;;;;;7.00;3.60;;;;;;;28.59;25.04;101016.59;5349372;32;36229;-88
2022/05/10 08:04:03;;;;;;;5.05;3.15;;;;;;;27.04;26.90;101025.19;5356086;32;33889;-85
2022/05/10 08:07:05;;;;;;;12.25;3.67;;;;;;;27.64;26.10;101029.06;5356148;32;32825;-66
2022/05/10 08:10:07;;;;;;;8.98;3.30;;;;;;;29.58;23.82;101018.62;5343715;32;36124;-65
2022/05/10 08:13:16;;;;;;;15.40;3.75;;;;;;;29.25;24.18;101023.13;5341836;32;36178;-64
2022/05/10 08:16:19;;;;;;;8.13;3.53;;;;;;;29.71;23.98;101018.97;5352607;32;35438;-66
2022/05/10 08:19:21;;;;;;;10.38;3.40;;;;;;;28.40;25.08;101020.37;5355623;32;46773;-66
2022/05/10 08:22:23;;;;;;;10.23;3.45;;;;;;;30.06;22.85;101009.63;5353391;32;35511;-65
2022/05/10 08:25:27;;;;;;;7.68;3.40;;;;;;;30.97;21.75;101001.06;5361608;32;35416;-63
2022/05/10 08:28:34;;;;;;;7.78;3.05;;;;;;;28.74;24.12;101000.63;5360632;32;35544;-63
2022/05/10 08:31:37;;;;;;;6.57;3.08;;;;;;;30.39;22.06;101009.59;5351821;32;33988;-65
2022/05/10 08:34:39;;;;;;;7.50;3.28;;;;;;;30.09;22.16;101006.59;5354387;32;35475;-65
2022/05/10 08:37:41;;;;;;;11.25;4.12;;;;;;;29.14;23.76;101003.47;5357557;32;34177;-63
2022/05/10 08:40:57;;;;;;;6.00;3.25;;;;;;;28.80;23.98;101003.53;5363530;32;32970;-64
2022/05/10 08:44:17;;;;;;;10.18;3.60;;;;;;;30.07;22.75;101003.19;5347879;32;35449;-65
2022/05/10 08:47:20;;;;;;;7.43;3.55;;;;;;;30.24;22.00;100990.50;5352867;32;44253;-63
2022/05/10 08:50:22;;;;;;;7.93;3.55;;;;;;;29.48;22.60;100996.25;5372673;32;35408;-64
2022/05/10 08:53:40;;;;;;;9.90;3.62;;;;;;;31.79;20.35;100984.25;5362134;32;34034;-63
2022/05/10 08:56:52;;;;;;;8.55;3.53;;;;;;;30.22;22.21;100987.13;5369567;32;34232;-66
2022/05/10 08:59:57;;;;;;;5.57;2.97;;;;;;;29.50;23.35;100992.38;5349880;32;44343;-64
2022/05/10 09:03:00;;;;;;;10.93;3.15;;;;;;;31.14;21.02;100980.09;5345403;32;34404;-64
2022/05/10 09:06:27;;;;;;;6.80;3.12;;;;;;;33.65;18.01;100977.44;5378216;32;35224;-64
2022/05/10 09:09:33;;;;;;;7.93;3.37;;;;;;;32.23;19.35;100972.59;5344507;32;35339;-64
2022/05/10 09:12:53;;;;;;;6.90;2.95;;;;;;;29.08;22.33;100985.19;5330752;32;34235;-64
2022/05/10 09:16:01;;;;;;;6.15;3.12;;;;;;;32.21;19.39;100972.78;5358203;32;44444;-64
2022/05/10 09:19:06;;;;;;;6.53;3.35;;;;;;;29.60;22.58;100982.22;5338536;32;34217;-69
2022/05/10 09:22:24;;;;;;;11.70;3.62;;;;;;;32.84;19.33;100963.16;5352454;32;34231;-69
2022/05/10 09:25:33;;;;;;;24.98;5.32;;;;;;;31.90;19.84;100980.25;5350640;32;44217;-75
2022/05/10 09:28:39;;;;;;;5.93;3.10;;;;;;;32.02;20.28;100965.16;5360679;32;34376;-66
2022/05/10 09:35:14;;;;;;;6.10;3.50;;;;;;;32.85;18.91;100958.56;5354508;32;35257;-69
2022/05/10 09:38:18;;;;;;;8.63;3.35;;;;;;;32.08;19.41;100962.56;5363801;32;35675;-72
2022/05/10 09:41:42;;;;;;;10.15;3.50;;;;;;;30.19;21.98;100952.19;5361694;32;46813;-68
2022/05/10 09:44:57;;;;;;;5.97;3.15;;;;;;;29.03;23.47;100975.87;5349924;32;34298;-67
2022/05/10 09:48:14;;;;;;;8.30;3.62;;;;;;;30.82;21.51;100961.31;5348563;32;34210;-63
2022/05/10 09:51:31;;;;;;;7.75;3.40;;;;;;;29.16;23.47;100970.81;5341302;32;34640;-67
2022/05/10 09:54:39;;;;;;;10.77;3.90;;;;;;;31.99;19.87;100960.09;5347005;32;34469;-74
2022/05/10 09:57:43;;;;;;;8.65;3.25;;;;;;;29.93;22.03;100961.38;5344874;32;34505;-76
2022/05/10 10:00:52;;;;;;;10.75;3.97;;;;;;;28.48;24.00;100949.31;5341915;32;35161;-76
2022/05/10 10:04:17;;;;;;;7.97;3.58;;;;;;;30.04;22.56;100960.19;5348523;32;44356;-70
2022/05/10 10:07:24;;;;;;;7.20;3.22;;;;;;;29.56;23.11;100964.66;5338418;32;44496;-69
2022/05/10 10:10:37;;;;;;;7.28;3.55;;;;;;;28.90;23.87;100956.53;5344960;32;34218;-70
2022/05/10 10:13:43;;;;;;;8.20;3.45;;;;;;;29.18;23.52;100955.28;5319904;32;36103;-76
2022/05/10 10:16:48;;;;;;;8.60;3.62;;;;;;;28.23;24.63;100942.91;5343068;32;34179;-74
2022/05/10 10:20:19;;;;;;;7.75;3.60;;;;;;;26.84;26.44;100957.03;5360218;32;44551;-73
2022/05/10 10:23:34;;;;;;;7.53;3.42;;;;;;;26.99;26.66;100945.59;5345678;32;44624;-71
2022/05/10 10:26:49;;;;;;;7.57;3.47;;;;;;;26.25;27.28;100951.06;5369291;32;34102;-70
2022/05/10 10:30:03;;;;;;;6.00;3.58;;;;;;;24.83;29.81;100957.06;5344043;32;47064;-69
2022/05/10 10:33:13;;;;;;;8.48;3.58;;;;;;;26.24;27.76;100943.97;5329932;32;35161;-67
2022/05/10 10:36:18;;;;;;;9.23;4.03;;;;;;;26.34;27.49;100939.41;5350953;32;34596;-71
2022/05/10 10:39:20;;;;;;;8.48;3.92;;;;;;;26.62;27.20;100934.91;5362861;32;47002;-68
2022/05/10 10:42:33;;;;;;;9.50;3.70;;;;;;;25.34;29.44;100944.41;5363229;32;34779;-74
2022/05/10 10:45:43;;;;;;;7.15;3.50;;;;;;;25.91;28.47;100927.38;5330331;32;423766;-73
2022/05/10 10:48:53;;;;;;;8.07;3.55;;;;;;;28.65;24.54;100915.88;5337656;32;34154;-74
2022/05/10 10:51:57;;;;;;;8.77;3.40;;;;;;;26.93;26.93;100921.94;5353427;32;46444;-76
2022/05/10 10:55:00;;;;;;;6.40;3.40;;;;;;;29.97;22.99;100913.12;5343556;32;34399;-75
2022/05/10 10:58:13;;;;;;;8.80;3.58;;;;;;;30.70;22.25;100910.16;5354540;32;35496;-79
2022/05/10 11:01:40;;;;;;;6.43;3.22;;;;;;;30.80;22.21;100907.22;5338707;32;35305;-79
2022/05/10 11:05:05;;;;;;;8.77;3.28;;;;;;;31.96;21.03;100906.94;5359162;32;34157;-83
2022/05/10 11:08:25;;;;;;;7.45;3.12;;;;;;;33.33;19.50;100905.25;5389857;32;34522;-88
2022/05/10 11:12:11;;;;;;;6.65;3.30;;;;;;;32.64;20.02;100904.91;5337359;32;44826;-74
2022/05/10 11:15:40;;;;;;;6.75;2.92;;;;;;;31.24;21.58;100893.88;5351631;32;35994;-80
2022/05/10 11:18:55;;;;;;;7.70;3.67;;;;;;;30.78;22.61;100897.56;5370283;32;35423;-68
2022/05/10 11:22:29;;;;;;;7.87;3.72;;;;;;;28.41;26.60;100905.84;5352252;32;46138;-78
2022/05/10 11:25:54;;;;;;;6.65;3.85;;;;;;;26.94;29.03;100899.34;5358637;32;33967;-80
2022/05/10 11:29:21;;;;;;;6.80;3.95;;;;;;;25.96;33.88;100905.41;5367630;32;44465;-78
2022/05/10 11:32:34;;;;;;;9.52;4.25;;;;;;;25.97;31.34;100903.53;5349252;32;46555;-75
2022/05/10 11:35:45;;;;;;;10.77;3.67;;;;;;;25.31;33.28;100894.44;5363995;32;34547;-83
2022/05/10 11:39:17;;;;;;;9.48;4.40;;;;;;;25.26;33.45;100894.00;5366910;32;34184;-76
2022/05/10 11:42:33;;;;;;;5.40;3.30;;;;;;;25.23;33.99;100877.28;5340237;32;38043;-76
2022/05/10 11:45:58;;;;;;;11.50;5.30;;;;;;;25.33;32.65;100872.78;5358335;32;34498;-81
2022/05/10 11:49:12;;;;;;;9.13;4.22;;;;;;;26.05;32.83;100869.47;5350111;32;34554;-72
2022/05/10 11:52:18;;;;;;;7.20;3.78;;;;;;;27.37;30.54;100881.56;5345259;32;34041;-69
2022/05/10 11:55:27;;;;;;;8.02;3.85;;;;;;;28.26;28.22;100869.59;5372022;32;44481;-76
2022/05/10 11:58:31;;;;;;;7.25;3.40;;;;;;;28.86;28.16;100861.34;5349222;32;34919;-79
2022/05/10 12:01:48;;;;;;;16.37;4.97;;;;;;;30.16;25.52;100850.41;5361666;32;34280;-75
2022/05/10 12:05:10;;;;;;;8.85;3.40;;;;;;;30.66;24.89;100851.84;5349781;32;47106;-80
2022/05/10 12:08:16;;;;;;;12.60;4.12;;;;;;;32.06;23.77;100846.84;5357249;32;34237;-83
2022/05/10 12:11:49;;;;;;;7.68;3.40;;;;;;;31.23;24.98;100858.69;5356804;32;34598;-74
2022/05/10 12:21:38;;;;;;;8.20;3.53;;;;;;;30.32;26.01;100844.03;5363189;32;34020;-72
2022/05/10 12:24:44;;;;;;;7.03;3.35;;;;;;;32.61;22.43;100834.56;5347240;32;36005;-67
2022/05/10 12:28:00;;;;;;;8.25;4.03;;;;;;;30.08;26.22;100841.44;5366085;32;35917;-65
2022/05/10 12:31:21;;;;;;;8.05;4.00;;;;;;;27.07;31.35;100841.50;5347943;32;34122;-65
2022/05/10 12:34:45;;;;;;;8.07;3.70;;;;;;;25.20;35.00;100846.16;5354468;32;44471;-69
2022/05/10 12:37:54;;;;;;;6.65;3.10;;;;;;;23.94;37.66;100851.25;5353161;32;34100;-66
2022/05/10 12:41:05;;;;;;;5.28;3.08;;;;;;;23.16;37.90;100836.53;5354556;32;44802;-65
2022/05/10 12:44:19;;;;;;;7.12;3.58;;;;;;;23.08;36.56;100830.97;5362415;32;34143;-67
2022/05/10 12:47:42;;;;;;;6.37;3.05;;;;;;;23.65;36.82;100813.56;5323633;32;44379;-66
2022/05/10 12:51:03;;;;;;;6.57;3.12;;;;;;;23.91;35.57;100810.44;5336399;32;36581;-66
2022/05/10 12:54:19;;;;;;;5.53;2.85;;;;;;;25.05;32.52;100788.41;5360832;32;35454;-66
2022/05/10 12:57:31;;;;;;;4.70;2.80;;;;;;;24.51;32.28;100789.81;5333912;32;44573;-68
2022/05/10 13:00:40;;;;;;;4.35;2.70;;;;;;;25.23;31.21;100780.47;5355557;32;35352;-71
2022/05/10 13:03:47;;;;;;;9.45;2.90;;;;;;;24.63;31.11;100766.34;5340597;32;35313;-68
2022/05/10 13:06:52;;;;;;;5.15;2.70;;;;;;;25.89;30.06;100767.81;5350023;32;46225;-70
2022/05/10 13:10:03;;;;;;;4.20;2.60;;;;;;;25.30;29.86;100760.91;5362119;32;35401;-67
2022/05/10 13:13:15;;;;;;;6.10;2.80;;;;;;;24.75;29.56;100757.16;5319516;32;34108;-66
2022/05/10 13:16:20;;;;;;;6.18;3.10;;;;;;;24.59;30.61;100744.28;5371602;32;35702;-70
2022/05/10 13:19:24;;;;;;;5.43;2.87;;;;;;;24.52;30.68;100738.63;5342839;32;46115;-67
2022/05/10 13:22:32;;;;;;;4.78;2.87;;;;;;;24.59;30.88;100733.53;5341302;32;34210;-64
2022/05/10 13:25:35;;;;;;;;;;;;;;;24.51;30.72;100730.72;5339893;32;33986;-69
2022/05/10 13:28:59;;;;;;;6.18;2.87;;;;;;;24.99;29.87;100719.03;5344693;32;35368;-66
2022/05/10 13:32:02;;;;;;;6.93;2.60;;;;;;;24.88;30.49;100727.28;5366161;32;34330;-68
2022/05/10 13:35:23;;;;;;;4.50;2.72;;;;;;;25.14;29.88;100717.66;5359410;32;34173;-64
2022/05/10 13:38:34;;;;;;;4.57;2.97;;;;;;;24.53;31.09;100701.84;5351666;32;46978;-64
2022/05/10 13:41:39;;;;;;;6.68;2.72;;;;;;;25.43;28.91;100708.63;5346008;32;35511;-64
2022/05/10 13:44:41;;;;;;;7.28;2.92;;;;;;;24.89;29.30;100697.56;5341222;32;34078;-61
2022/05/10 13:47:48;;;;;;;5.03;2.85;;;;;;;25.33;28.55;100689.84;5359730;32;34130;-65
2022/05/10 13:50:54;;;;;;;6.68;2.92;;;;;;;25.20;28.62;100684.78;5350557;32;45653;-68
2022/05/10 13:54:08;;;;;;;6.32;3.03;;;;;;;25.06;29.23;100678.03;5339131;32;34100;-69
2022/05/10 13:57:13;;;;;;;6.12;2.62;;;;;;;25.55;28.73;100672.44;5364231;32;34205;-70
2022/05/10 14:00:20;;;;;;;5.18;2.60;;;;;;;25.77;28.61;100668.53;5344511;32;36705;-67
2022/05/10 14:03:23;;;;;;;5.32;2.20;;;;;;;25.85;28.65;100672.16;5344498;32;45936;-67
2022/05/10 14:06:29;;;;;;;8.27;3.03;;;;;;;25.42;28.39;100667.41;5327925;32;35681;-68
2022/05/10 14:09:35;;;;;;;5.90;2.45;;;;;;;26.28;27.80;100657.09;5349077;32;36182;-69
2022/05/10 14:12:47;;;;;;;5.37;2.60;;;;;;;25.31;28.72;100655.00;5322054;32;35810;-68
2022/05/10 14:15:50;;;;;;;5.55;2.67;;;;;;;26.14;27.84;100646.84;5340663;32;43667;-67
2022/05/10 14:18:52;;;;;;;;;;;;;;;25.80;28.64;100644.84;5341042;32;34117;-70
2022/05/10 14:21:54;;;;;;;4.03;2.63;;;;;;;26.66;27.40;100646.97;5339910;32;34309;-73
2022/05/10 14:24:57;;;;;;;4.35;2.67;;;;;;;27.07;26.98;100649.97;5359289;32;33377;-70
2022/05/10 14:28:19;;;;;;;6.97;2.75;;;;;;;27.12;27.08;100642.25;5331996;32;34167;-70
2022/05/10 14:31:33;;;;;;;8.27;2.75;;;;;;;26.73;28.00;100640.81;5350163;32;46130;-69
2022/05/10 14:34:51;;;;;;;8.30;2.62;;;;;;;26.55;28.10;100637.31;5365225;32;34204;-72
2022/05/10 14:37:54;;;;;;;4.75;2.35;;;;;;;27.30;23.68;100632.19;5340663;32;44669;-69
2022/05/10 14:40:57;;;;;;;6.87;2.37;;;;;;;27.27;23.91;100632.53;5361102;32;34296;-73
2022/05/10 14:44:10;;;;;;;;;;;;;;;26.55;24.29;100626.53;5350237;32;34101;-71
2022/05/10 14:47:18;;;;;;;6.90;2.60;;;;;;;25.46;25.86;100631.16;5349931;32;35937;-74
2022/05/10 14:50:36;;;;;;;7.40;2.70;;;;;;;25.80;25.01;100633.22;5364841;32;45921;-74
2022/05/10 14:53:51;;;;;;;7.00;2.70;;;;;;;26.05;24.52;100626.25;5356960;32;34086;-75
2022/05/10 14:56:55;;;;;;;7.87;4.00;;;;;;;26.42;23.76;100608.06;5372171;32;44438;-75